Estación Meteorológica Peña el Pijo (Robertgarden) [ 08/20/17 13:44:16 CEST ]

Fecha Hora Presion(HPa) Temp (°C) Humedad % Rocio (°C) Viento ( m/s) Direccion Lluvia 1Hora(mm) Lluvia 24H(mm) LLuvia Total(mm)
2017-Jun-27 01:01:45 1008.200 15.6 51 5.5         1427.60
2017-Jun-27 02:01:34 1007.800 14.8 54 5.6         1427.60
2017-Jun-27 03:01:33 1007.400 13.6 58 5.5         1427.60
2017-Jun-27 04:01:40 1006.700 12.7 60 5.1         1427.60
2017-Jun-27 05:01:31 1006.400 12.1 63 5.2         1427.60
2017-Jun-27 06:01:31 1005.900 11.9 64 5.3         1427.60
2017-Jun-27 07:08:53 1005.800 - - - - NW     1427.60
2017-Jun-27 08:09:03 1006.200 - - - - NW     1427.60
2017-Jun-27 09:01:39 1006.300 21.1 54 11.4         1427.60
2017-Jun-27 10:01:52 1006.000 28.9 34 11.4         1427.60
2017-Jun-27 11:01:56 1005.800 31.5 24 8.3         1427.60
2017-Jun-27 12:02:09 1005.500 31.4 17 2.9 3.2 NW     1427.60
2017-Jun-27 13:01:42 1005.400 32.4 18 4.7 0.2 N     1427.60
2017-Jun-27 14:02:05 1005.500 30.8 18 3.4         1427.60
2017-Jun-27 15:01:50 1005.600 31.2 18 3.7 3.4 NNW     1427.60
2017-Jun-27 16:01:43 1005.500 31.8 17 3.2         1427.60
2017-Jun-27 17:01:43 1005.500 31.4 15 1.0         1427.60
2017-Jun-27 18:01:39 1005.300 30.0 16 0.9         1427.60
2017-Jun-27 19:01:33 1005.100 28.6 19 2.7         1427.60
2017-Jun-27 20:01:36 1005.100 26.4 23 3.5 1.1 NW     1427.60
2017-Jun-27 21:01:31 1005.400 23.5 32 5.8         1427.60
2017-Jun-27 22:01:08 1005.800 22.2 38 7.2         1427.60
2017-Jun-27 23:01:37 1006.300 21.6 39 7.0         1427.60

Temperatura Máxima:32°    Temperatura Mínima:
Presión Máxima:1008.200 Hpa    Presión Mínima:1005.100 Hpa


Volver